sensor_id;sensor_type;location;lat;lon;timestamp;P1;durP1;ratioP1;P2;durP2;ratioP2
25962;SDS011;13760;52.588;13.406;2022-09-11T00:01:44;8.90;;;7.65;;
25962;SDS011;13760;52.588;13.406;2022-09-11T00:04:10;11.55;;;8.00;;
25962;SDS011;13760;52.588;13.406;2022-09-11T00:06:36;12.13;;;7.65;;
25962;SDS011;13760;52.588;13.406;2022-09-11T00:09:03;10.90;;;7.85;;
25962;SDS011;13760;52.588;13.406;2022-09-11T00:11:31;11.13;;;7.93;;
25962;SDS011;13760;52.588;13.406;2022-09-11T00:13:59;8.93;;;7.15;;
25962;SDS011;13760;52.588;13.406;2022-09-11T00:16:29;13.18;;;7.90;;
25962;SDS011;13760;52.588;13.406;2022-09-11T00:19:01;8.60;;;7.15;;
25962;SDS011;13760;52.588;13.406;2022-09-11T00:21:29;10.65;;;7.07;;
25962;SDS011;13760;52.588;13.406;2022-09-11T00:23:55;11.23;;;7.72;;
25962;SDS011;13760;52.588;13.406;2022-09-11T00:26:21;9.57;;;7.63;;
25962;SDS011;13760;52.588;13.406;2022-09-11T00:28:49;10.48;;;7.70;;
25962;SDS011;13760;52.588;13.406;2022-09-11T00:31:16;11.02;;;7.68;;
25962;SDS011;13760;52.588;13.406;2022-09-11T00:33:43;12.65;;;7.22;;
25962;SDS011;13760;52.588;13.406;2022-09-11T00:36:19;9.13;;;7.50;;
25962;SDS011;13760;52.588;13.406;2022-09-11T00:38:46;11.45;;;7.82;;
25962;SDS011;13760;52.588;13.406;2022-09-11T00:41:14;7.95;;;7.15;;
25962;SDS011;13760;52.588;13.406;2022-09-11T00:46:19;8.98;;;7.30;;
25962;SDS011;13760;52.588;13.406;2022-09-11T00:48:46;9.00;;;7.78;;
25962;SDS011;13760;52.588;13.406;2022-09-11T00:51:14;9.70;;;7.47;;
25962;SDS011;13760;52.588;13.406;2022-09-11T00:53:43;9.43;;;6.78;;
25962;SDS011;13760;52.588;13.406;2022-09-11T00:56:09;7.25;;;6.53;;
25962;SDS011;13760;52.588;13.406;2022-09-11T00:58:36;12.18;;;7.05;;
25962;SDS011;13760;52.588;13.406;2022-09-11T01:01:06;10.38;;;7.05;;
25962;SDS011;13760;52.588;13.406;2022-09-11T01:03:32;9.88;;;7.07;;
25962;SDS011;13760;52.588;13.406;2022-09-11T01:05:58;10.05;;;6.57;;
25962;SDS011;13760;52.588;13.406;2022-09-11T01:08:24;9.85;;;6.75;;
25962;SDS011;13760;52.588;13.406;2022-09-11T01:13:57;10.27;;;6.40;;
25962;SDS011;13760;52.588;13.406;2022-09-11T01:16:33;9.32;;;6.70;;
25962;SDS011;13760;52.588;13.406;2022-09-11T01:29:44;9.00;;;6.30;;
25962;SDS011;13760;52.588;13.406;2022-09-11T01:32:23;9.38;;;6.88;;
25962;SDS011;13760;52.588;13.406;2022-09-11T01:38:01;7.72;;;6.68;;
25962;SDS011;13760;52.588;13.406;2022-09-11T01:40:54;7.65;;;6.40;;
25962;SDS011;13760;52.588;13.406;2022-09-11T01:43:22;7.78;;;6.53;;
25962;SDS011;13760;52.588;13.406;2022-09-11T01:45:50;10.00;;;6.30;;
25962;SDS011;13760;52.588;13.406;2022-09-11T01:48:19;8.60;;;6.57;;
25962;SDS011;13760;52.588;13.406;2022-09-11T01:50:53;7.38;;;6.47;;
25962;SDS011;13760;52.588;13.406;2022-09-11T01:53:24;10.25;;;6.28;;
25962;SDS011;13760;52.588;13.406;2022-09-11T01:56:14;11.85;;;6.47;;
25962;SDS011;13760;52.588;13.406;2022-09-11T02:03:50;11.27;;;6.60;;
25962;SDS011;13760;52.588;13.406;2022-09-11T02:06:33;9.05;;;6.30;;
25962;SDS011;13760;52.588;13.406;2022-09-11T02:09:05;10.65;;;6.53;;
25962;SDS011;13760;52.588;13.406;2022-09-11T02:11:34;10.98;;;6.97;;
25962;SDS011;13760;52.588;13.406;2022-09-11T02:19:33;7.63;;;6.82;;
25962;SDS011;13760;52.588;13.406;2022-09-11T02:21:59;10.07;;;6.72;;
25962;SDS011;13760;52.588;13.406;2022-09-11T02:24:25;9.27;;;7.00;;
25962;SDS011;13760;52.588;13.406;2022-09-11T02:26:53;7.75;;;6.70;;
25962;SDS011;13760;52.588;13.406;2022-09-11T02:29:25;8.13;;;6.75;;
25962;SDS011;13760;52.588;13.406;2022-09-11T02:31:51;7.22;;;5.90;;
25962;SDS011;13760;52.588;13.406;2022-09-11T02:34:18;7.88;;;6.30;;
25962;SDS011;13760;52.588;13.406;2022-09-11T02:37:01;12.75;;;6.68;;
25962;SDS011;13760;52.588;13.406;2022-09-11T02:50:31;8.73;;;6.25;;
25962;SDS011;13760;52.588;13.406;2022-09-11T02:59:15;9.88;;;6.75;;
25962;SDS011;13760;52.588;13.406;2022-09-11T03:01:56;10.68;;;8.57;;
25962;SDS011;13760;52.588;13.406;2022-09-11T03:04:23;10.55;;;8.63;;
25962;SDS011;13760;52.588;13.406;2022-09-11T03:06:49;14.73;;;9.25;;
25962;SDS011;13760;52.588;13.406;2022-09-11T03:09:16;16.35;;;11.10;;
25962;SDS011;13760;52.588;13.406;2022-09-11T03:11:43;16.23;;;11.02;;
25962;SDS011;13760;52.588;13.406;2022-09-11T03:14:09;15.45;;;11.20;;
25962;SDS011;13760;52.588;13.406;2022-09-11T03:16:35;17.63;;;12.00;;
25962;SDS011;13760;52.588;13.406;2022-09-11T03:19:03;18.13;;;13.10;;
25962;SDS011;13760;52.588;13.406;2022-09-11T03:21:29;18.30;;;15.02;;
25962;SDS011;13760;52.588;13.406;2022-09-11T03:23:55;23.25;;;16.77;;
25962;SDS011;13760;52.588;13.406;2022-09-11T03:26:21;21.13;;;16.88;;
25962;SDS011;13760;52.588;13.406;2022-09-11T03:28:47;19.95;;;16.67;;
25962;SDS011;13760;52.588;13.406;2022-09-11T03:31:13;23.73;;;16.55;;
25962;SDS011;13760;52.588;13.406;2022-09-11T03:33:38;25.05;;;17.70;;
25962;SDS011;13760;52.588;13.406;2022-09-11T03:36:04;20.67;;;16.83;;
25962;SDS011;13760;52.588;13.406;2022-09-11T03:38:30;21.77;;;17.08;;
25962;SDS011;13760;52.588;13.406;2022-09-11T03:40:57;20.92;;;17.40;;
25962;SDS011;13760;52.588;13.406;2022-09-11T03:43:22;22.08;;;18.05;;
25962;SDS011;13760;52.588;13.406;2022-09-11T03:45:48;24.20;;;17.50;;
25962;SDS011;13760;52.588;13.406;2022-09-11T03:48:14;24.63;;;16.75;;
25962;SDS011;13760;52.588;13.406;2022-09-11T03:50:40;24.25;;;17.75;;
25962;SDS011;13760;52.588;13.406;2022-09-11T03:53:05;27.10;;;16.65;;
25962;SDS011;13760;52.588;13.406;2022-09-11T03:55:31;22.00;;;16.00;;
25962;SDS011;13760;52.588;13.406;2022-09-11T03:57:57;20.08;;;15.60;;
25962;SDS011;13760;52.588;13.406;2022-09-11T04:00:24;23.25;;;16.15;;
25962;SDS011;13760;52.588;13.406;2022-09-11T04:02:50;22.92;;;16.77;;
25962;SDS011;13760;52.588;13.406;2022-09-11T04:05:15;25.90;;;16.88;;
25962;SDS011;13760;52.588;13.406;2022-09-11T04:07:41;25.55;;;16.80;;
25962;SDS011;13760;52.588;13.406;2022-09-11T04:10:07;25.20;;;16.92;;
25962;SDS011;13760;52.588;13.406;2022-09-11T04:12:33;28.65;;;18.00;;
25962;SDS011;13760;52.588;13.406;2022-09-11T04:14:59;26.42;;;17.02;;
25962;SDS011;13760;52.588;13.406;2022-09-11T04:17:28;28.77;;;16.70;;
25962;SDS011;13760;52.588;13.406;2022-09-11T04:19:54;28.23;;;17.58;;
25962;SDS011;13760;52.588;13.406;2022-09-11T04:22:19;31.77;;;18.13;;
25962;SDS011;13760;52.588;13.406;2022-09-11T04:24:45;26.83;;;17.42;;
25962;SDS011;13760;52.588;13.406;2022-09-11T04:27:11;29.65;;;17.92;;
25962;SDS011;13760;52.588;13.406;2022-09-11T04:29:36;33.22;;;17.50;;
25962;SDS011;13760;52.588;13.406;2022-09-11T04:32:02;28.88;;;18.00;;
25962;SDS011;13760;52.588;13.406;2022-09-11T04:34:28;27.10;;;16.67;;
25962;SDS011;13760;52.588;13.406;2022-09-11T04:36:54;30.10;;;17.75;;
25962;SDS011;13760;52.588;13.406;2022-09-11T04:39:20;30.05;;;17.52;;
25962;SDS011;13760;52.588;13.406;2022-09-11T04:41:46;40.10;;;19.90;;
25962;SDS011;13760;52.588;13.406;2022-09-11T04:44:12;28.40;;;17.70;;
25962;SDS011;13760;52.588;13.406;2022-09-11T04:46:38;35.33;;;19.35;;
25962;SDS011;13760;52.588;13.406;2022-09-11T04:49:05;37.10;;;19.83;;
25962;SDS011;13760;52.588;13.406;2022-09-11T04:51:33;32.40;;;18.10;;
25962;SDS011;13760;52.588;13.406;2022-09-11T04:54:00;36.58;;;19.25;;
25962;SDS011;13760;52.588;13.406;2022-09-11T04:56:27;32.50;;;18.58;;
25962;SDS011;13760;52.588;13.406;2022-09-11T04:59:05;32.90;;;18.38;;
25962;SDS011;13760;52.588;13.406;2022-09-11T05:01:40;36.15;;;20.02;;
25962;SDS011;13760;52.588;13.406;2022-09-11T05:04:07;33.10;;;17.98;;
25962;SDS011;13760;52.588;13.406;2022-09-11T05:06:35;29.88;;;18.42;;
25962;SDS011;13760;52.588;13.406;2022-09-11T05:09:02;30.77;;;17.83;;
25962;SDS011;13760;52.588;13.406;2022-09-11T05:11:32;35.25;;;20.02;;
25962;SDS011;13760;52.588;13.406;2022-09-11T05:13:57;33.70;;;19.67;;
25962;SDS011;13760;52.588;13.406;2022-09-11T05:16:24;33.60;;;20.35;;
25962;SDS011;13760;52.588;13.406;2022-09-11T05:18:51;35.60;;;20.17;;
25962;SDS011;13760;52.588;13.406;2022-09-11T05:21:18;35.55;;;20.38;;
25962;SDS011;13760;52.588;13.406;2022-09-11T05:23:49;35.58;;;20.38;;
25962;SDS011;13760;52.588;13.406;2022-09-11T05:26:17;37.33;;;21.13;;
25962;SDS011;13760;52.588;13.406;2022-09-11T05:28:44;39.25;;;22.98;;
25962;SDS011;13760;52.588;13.406;2022-09-11T05:31:11;40.20;;;22.77;;
25962;SDS011;13760;52.588;13.406;2022-09-11T05:33:39;45.08;;;24.67;;
25962;SDS011;13760;52.588;13.406;2022-09-11T05:36:05;49.10;;;26.48;;
25962;SDS011;13760;52.588;13.406;2022-09-11T05:38:32;42.03;;;24.33;;
25962;SDS011;13760;52.588;13.406;2022-09-11T05:40:59;51.00;;;26.90;;
25962;SDS011;13760;52.588;13.406;2022-09-11T05:43:25;46.38;;;26.58;;
25962;SDS011;13760;52.588;13.406;2022-09-11T05:45:55;46.22;;;25.13;;
25962;SDS011;13760;52.588;13.406;2022-09-11T05:48:21;50.70;;;26.97;;
25962;SDS011;13760;52.588;13.406;2022-09-11T05:50:51;49.30;;;27.63;;
25962;SDS011;13760;52.588;13.406;2022-09-11T05:53:17;46.70;;;27.38;;
25962;SDS011;13760;52.588;13.406;2022-09-11T05:55:44;51.47;;;27.30;;
25962;SDS011;13760;52.588;13.406;2022-09-11T05:58:11;52.40;;;28.30;;
25962;SDS011;13760;52.588;13.406;2022-09-11T06:00:36;47.38;;;27.08;;
25962;SDS011;13760;52.588;13.406;2022-09-11T06:03:02;42.92;;;25.90;;
25962;SDS011;13760;52.588;13.406;2022-09-11T06:05:29;43.10;;;25.58;;
25962;SDS011;13760;52.588;13.406;2022-09-11T06:07:54;45.50;;;25.42;;
25962;SDS011;13760;52.588;13.406;2022-09-11T06:10:20;44.05;;;25.50;;
25962;SDS011;13760;52.588;13.406;2022-09-11T06:12:46;40.95;;;25.23;;
25962;SDS011;13760;52.588;13.406;2022-09-11T06:15:12;41.78;;;24.65;;
25962;SDS011;13760;52.588;13.406;2022-09-11T06:17:37;46.20;;;26.52;;
25962;SDS011;13760;52.588;13.406;2022-09-11T06:20:03;41.13;;;26.08;;
25962;SDS011;13760;52.588;13.406;2022-09-11T06:22:29;40.13;;;24.98;;
25962;SDS011;13760;52.588;13.406;2022-09-11T06:24:57;37.92;;;24.77;;
25962;SDS011;13760;52.588;13.406;2022-09-11T06:27:23;48.35;;;26.42;;
25962;SDS011;13760;52.588;13.406;2022-09-11T06:29:49;39.80;;;25.20;;
25962;SDS011;13760;52.588;13.406;2022-09-11T06:32:14;37.25;;;23.58;;
25962;SDS011;13760;52.588;13.406;2022-09-11T06:34:40;39.60;;;25.02;;
25962;SDS011;13760;52.588;13.406;2022-09-11T06:37:05;36.72;;;23.48;;
25962;SDS011;13760;52.588;13.406;2022-09-11T06:39:31;41.03;;;24.45;;
25962;SDS011;13760;52.588;13.406;2022-09-11T06:41:58;38.67;;;25.10;;
25962;SDS011;13760;52.588;13.406;2022-09-11T06:44:24;36.28;;;24.10;;
25962;SDS011;13760;52.588;13.406;2022-09-11T06:46:50;38.10;;;24.17;;
25962;SDS011;13760;52.588;13.406;2022-09-11T06:49:16;36.15;;;23.63;;
25962;SDS011;13760;52.588;13.406;2022-09-11T06:51:41;35.85;;;23.15;;
25962;SDS011;13760;52.588;13.406;2022-09-11T06:54:07;33.75;;;23.48;;
25962;SDS011;13760;52.588;13.406;2022-09-11T06:56:33;31.13;;;22.05;;
25962;SDS011;13760;52.588;13.406;2022-09-11T06:58:58;33.22;;;23.77;;
25962;SDS011;13760;52.588;13.406;2022-09-11T07:01:24;37.83;;;23.05;;
25962;SDS011;13760;52.588;13.406;2022-09-11T07:03:51;34.20;;;23.15;;
25962;SDS011;13760;52.588;13.406;2022-09-11T07:06:19;30.08;;;20.98;;
25962;SDS011;13760;52.588;13.406;2022-09-11T07:08:50;29.63;;;21.33;;
25962;SDS011;13760;52.588;13.406;2022-09-11T07:11:17;33.55;;;22.50;;
25962;SDS011;13760;52.588;13.406;2022-09-11T07:13:43;29.40;;;21.17;;
25962;SDS011;13760;52.588;13.406;2022-09-11T07:16:09;35.08;;;21.77;;
25962;SDS011;13760;52.588;13.406;2022-09-11T07:18:38;35.20;;;21.65;;
25962;SDS011;13760;52.588;13.406;2022-09-11T07:21:06;31.30;;;20.80;;
25962;SDS011;13760;52.588;13.406;2022-09-11T07:23:33;29.25;;;19.88;;
25962;SDS011;13760;52.588;13.406;2022-09-11T07:26:02;31.92;;;20.33;;
25962;SDS011;13760;52.588;13.406;2022-09-11T07:31:05;28.58;;;18.05;;
25962;SDS011;13760;52.588;13.406;2022-09-11T07:33:37;30.63;;;18.93;;
25962;SDS011;13760;52.588;13.406;2022-09-11T07:36:07;27.00;;;19.13;;
25962;SDS011;13760;52.588;13.406;2022-09-11T07:38:35;25.85;;;18.13;;
25962;SDS011;13760;52.588;13.406;2022-09-11T07:41:05;25.65;;;17.48;;
25962;SDS011;13760;52.588;13.406;2022-09-11T07:43:32;26.20;;;17.75;;
25962;SDS011;13760;52.588;13.406;2022-09-11T07:45:59;24.23;;;17.48;;
25962;SDS011;13760;52.588;13.406;2022-09-11T07:48:24;27.17;;;17.92;;
25962;SDS011;13760;52.588;13.406;2022-09-11T07:51:01;30.58;;;18.40;;
25962;SDS011;13760;52.588;13.406;2022-09-11T07:53:32;24.23;;;17.48;;
25962;SDS011;13760;52.588;13.406;2022-09-11T07:56:02;25.33;;;17.98;;
25962;SDS011;13760;52.588;13.406;2022-09-11T07:58:37;24.50;;;17.67;;
25962;SDS011;13760;52.588;13.406;2022-09-11T08:01:04;24.50;;;17.77;;
25962;SDS011;13760;52.588;13.406;2022-09-11T08:03:34;23.83;;;17.00;;
25962;SDS011;13760;52.588;13.406;2022-09-11T08:06:02;29.42;;;16.75;;
25962;SDS011;13760;52.588;13.406;2022-09-11T08:08:29;23.02;;;15.95;;
25962;SDS011;13760;52.588;13.406;2022-09-11T08:10:56;23.40;;;16.58;;
25962;SDS011;13760;52.588;13.406;2022-09-11T08:13:26;25.50;;;17.42;;
25962;SDS011;13760;52.588;13.406;2022-09-11T08:15:51;25.85;;;17.25;;
25962;SDS011;13760;52.588;13.406;2022-09-11T08:18:17;23.33;;;16.35;;
25962;SDS011;13760;52.588;13.406;2022-09-11T08:20:43;26.95;;;16.85;;
25962;SDS011;13760;52.588;13.406;2022-09-11T08:23:09;24.27;;;17.08;;
25962;SDS011;13760;52.588;13.406;2022-09-11T08:25:36;25.00;;;17.23;;
25962;SDS011;13760;52.588;13.406;2022-09-11T08:28:02;22.85;;;16.73;;
25962;SDS011;13760;52.588;13.406;2022-09-11T08:30:30;20.80;;;15.75;;
25962;SDS011;13760;52.588;13.406;2022-09-11T08:32:56;20.08;;;15.30;;
25962;SDS011;13760;52.588;13.406;2022-09-11T08:35:21;21.75;;;15.35;;
25962;SDS011;13760;52.588;13.406;2022-09-11T08:37:47;20.58;;;14.93;;
25962;SDS011;13760;52.588;13.406;2022-09-11T08:40:12;21.30;;;15.60;;
25962;SDS011;13760;52.588;13.406;2022-09-11T08:42:39;20.20;;;14.73;;
25962;SDS011;13760;52.588;13.406;2022-09-11T08:45:09;23.08;;;14.75;;
25962;SDS011;13760;52.588;13.406;2022-09-11T08:47:52;19.17;;;13.85;;
25962;SDS011;13760;52.588;13.406;2022-09-11T08:53:05;17.92;;;14.50;;
25962;SDS011;13760;52.588;13.406;2022-09-11T08:55:43;19.02;;;14.63;;
25962;SDS011;13760;52.588;13.406;2022-09-11T08:58:22;18.92;;;13.80;;
25962;SDS011;13760;52.588;13.406;2022-09-11T09:17:16;17.77;;;12.85;;
25962;SDS011;13760;52.588;13.406;2022-09-11T09:19:50;18.77;;;13.43;;
25962;SDS011;13760;52.588;13.406;2022-09-11T09:25:21;18.20;;;12.25;;
25962;SDS011;13760;52.588;13.406;2022-09-11T09:28:01;15.88;;;11.70;;
25962;SDS011;13760;52.588;13.406;2022-09-11T09:30:53;19.10;;;13.13;;
25962;SDS011;13760;52.588;13.406;2022-09-11T09:36:01;20.65;;;13.25;;
25962;SDS011;13760;52.588;13.406;2022-09-11T09:38:48;16.85;;;12.18;;
25962;SDS011;13760;52.588;13.406;2022-09-11T09:44:10;19.25;;;12.55;;
25962;SDS011;13760;52.588;13.406;2022-09-11T09:49:08;15.52;;;11.27;;
25962;SDS011;13760;52.588;13.406;2022-09-11T09:51:36;13.98;;;10.73;;
25962;SDS011;13760;52.588;13.406;2022-09-11T09:54:04;16.95;;;11.23;;
25962;SDS011;13760;52.588;13.406;2022-09-11T09:56:30;16.42;;;11.02;;
25962;SDS011;13760;52.588;13.406;2022-09-11T09:59:13;15.25;;;10.43;;
25962;SDS011;13760;52.588;13.406;2022-09-11T10:04:19;12.02;;;9.57;;
25962;SDS011;13760;52.588;13.406;2022-09-11T10:06:47;12.52;;;10.10;;
25962;SDS011;13760;52.588;13.406;2022-09-11T10:09:34;12.35;;;10.50;;
25962;SDS011;13760;52.588;13.406;2022-09-11T10:12:11;11.95;;;10.05;;
25962;SDS011;13760;52.588;13.406;2022-09-11T10:14:59;16.73;;;11.43;;
25962;SDS011;13760;52.588;13.406;2022-09-11T10:17:36;13.23;;;10.70;;
25962;SDS011;13760;52.588;13.406;2022-09-11T10:23:23;13.55;;;9.60;;
25962;SDS011;13760;52.588;13.406;2022-09-11T10:29:22;12.13;;;9.10;;
25962;SDS011;13760;52.588;13.406;2022-09-11T10:32:12;11.18;;;8.85;;
25962;SDS011;13760;52.588;13.406;2022-09-11T10:34:50;10.40;;;8.32;;
25962;SDS011;13760;52.588;13.406;2022-09-11T10:37:23;12.90;;;9.45;;
25962;SDS011;13760;52.588;13.406;2022-09-11T10:39:59;10.68;;;8.48;;
25962;SDS011;13760;52.588;13.406;2022-09-11T10:42:32;13.65;;;9.43;;
25962;SDS011;13760;52.588;13.406;2022-09-11T10:45:10;12.65;;;9.07;;
25962;SDS011;13760;52.588;13.406;2022-09-11T10:47:41;13.82;;;9.18;;
25962;SDS011;13760;52.588;13.406;2022-09-11T10:55:44;11.88;;;9.02;;
25962;SDS011;13760;52.588;13.406;2022-09-11T10:58:21;11.07;;;8.43;;
25962;SDS011;13760;52.588;13.406;2022-09-11T11:00:58;13.05;;;8.82;;
25962;SDS011;13760;52.588;13.406;2022-09-11T11:03:27;10.40;;;7.63;;
25962;SDS011;13760;52.588;13.406;2022-09-11T11:09:00;10.57;;;8.32;;
25962;SDS011;13760;52.588;13.406;2022-09-11T11:14:29;10.68;;;8.73;;
25962;SDS011;13760;52.588;13.406;2022-09-11T11:17:33;10.70;;;7.68;;
25962;SDS011;13760;52.588;13.406;2022-09-11T11:36:59;8.70;;;6.78;;
25962;SDS011;13760;52.588;13.406;2022-09-11T11:39:56;9.57;;;6.90;;
25962;SDS011;13760;52.588;13.406;2022-09-11T11:42:26;8.65;;;6.07;;
25962;SDS011;13760;52.588;13.406;2022-09-11T11:45:48;7.68;;;6.30;;
25962;SDS011;13760;52.588;13.406;2022-09-11T11:49:04;7.30;;;6.05;;
25962;SDS011;13760;52.588;13.406;2022-09-11T12:02:57;8.35;;;5.70;;
25962;SDS011;13760;52.588;13.406;2022-09-11T12:05:53;7.72;;;5.57;;
25962;SDS011;13760;52.588;13.406;2022-09-11T12:08:24;6.45;;;4.68;;
25962;SDS011;13760;52.588;13.406;2022-09-11T12:11:14;6.45;;;4.63;;
25962;SDS011;13760;52.588;13.406;2022-09-11T12:13:49;5.07;;;4.17;;
25962;SDS011;13760;52.588;13.406;2022-09-11T12:16:40;6.70;;;4.55;;
25962;SDS011;13760;52.588;13.406;2022-09-11T12:19:17;4.88;;;4.10;;
25962;SDS011;13760;52.588;13.406;2022-09-11T12:24:17;7.68;;;4.55;;
25962;SDS011;13760;52.588;13.406;2022-09-11T12:27:30;6.25;;;4.30;;
25962;SDS011;13760;52.588;13.406;2022-09-11T12:32:53;6.82;;;5.75;;
25962;SDS011;13760;52.588;13.406;2022-09-11T12:37:55;7.07;;;5.80;;
25962;SDS011;13760;52.588;13.406;2022-09-11T12:43:44;6.70;;;4.87;;
25962;SDS011;13760;52.588;13.406;2022-09-11T12:49:18;5.40;;;4.13;;
25962;SDS011;13760;52.588;13.406;2022-09-11T12:54:20;4.28;;;3.65;;
25962;SDS011;13760;52.588;13.406;2022-09-11T12:56:58;6.15;;;4.47;;
25962;SDS011;13760;52.588;13.406;2022-09-11T12:59:39;6.10;;;4.00;;
25962;SDS011;13760;52.588;13.406;2022-09-11T13:04:44;6.90;;;4.32;;
25962;SDS011;13760;52.588;13.406;2022-09-11T13:07:20;4.90;;;3.70;;
25962;SDS011;13760;52.588;13.406;2022-09-11T13:10:34;6.35;;;4.32;;
25962;SDS011;13760;52.588;13.406;2022-09-11T13:13:03;7.65;;;4.72;;
25962;SDS011;13760;52.588;13.406;2022-09-11T13:18:19;5.50;;;4.90;;
25962;SDS011;13760;52.588;13.406;2022-09-11T13:21:01;9.25;;;5.35;;
25962;SDS011;13760;52.588;13.406;2022-09-11T13:23:35;6.10;;;5.03;;
25962;SDS011;13760;52.588;13.406;2022-09-11T13:26:02;10.23;;;5.07;;
25962;SDS011;13760;52.588;13.406;2022-09-11T13:28:30;6.72;;;4.13;;
25962;SDS011;13760;52.588;13.406;2022-09-11T13:31:15;5.65;;;5.15;;
25962;SDS011;13760;52.588;13.406;2022-09-11T13:33:46;7.22;;;4.97;;
25962;SDS011;13760;52.588;13.406;2022-09-11T13:36:13;6.60;;;4.40;;
25962;SDS011;13760;52.588;13.406;2022-09-11T13:38:40;6.90;;;3.88;;
25962;SDS011;13760;52.588;13.406;2022-09-11T13:41:15;6.28;;;4.72;;
25962;SDS011;13760;52.588;13.406;2022-09-11T13:43:48;5.72;;;4.35;;
25962;SDS011;13760;52.588;13.406;2022-09-11T13:46:18;4.82;;;4.10;;
25962;SDS011;13760;52.588;13.406;2022-09-11T13:48:47;4.50;;;4.07;;
25962;SDS011;13760;52.588;13.406;2022-09-11T13:51:21;3.67;;;3.38;;
25962;SDS011;13760;52.588;13.406;2022-09-11T13:53:54;5.07;;;3.20;;
25962;SDS011;13760;52.588;13.406;2022-09-11T13:56:44;3.97;;;3.00;;
25962;SDS011;13760;52.588;13.406;2022-09-11T14:02:03;3.58;;;2.63;;
25962;SDS011;13760;52.588;13.406;2022-09-11T14:04:40;2.75;;;2.42;;
25962;SDS011;13760;52.588;13.406;2022-09-11T14:07:14;2.67;;;2.40;;
25962;SDS011;13760;52.588;13.406;2022-09-11T14:09:52;3.92;;;3.00;;
25962;SDS011;13760;52.588;13.406;2022-09-11T14:12:29;4.75;;;2.38;;
25962;SDS011;13760;52.588;13.406;2022-09-11T14:14:57;2.42;;;2.22;;
25962;SDS011;13760;52.588;13.406;2022-09-11T14:17:26;4.82;;;2.40;;
25962;SDS011;13760;52.588;13.406;2022-09-11T14:19:53;2.83;;;2.35;;
25962;SDS011;13760;52.588;13.406;2022-09-11T14:22:28;2.90;;;2.60;;
25962;SDS011;13760;52.588;13.406;2022-09-11T14:25:01;3.63;;;2.30;;
25962;SDS011;13760;52.588;13.406;2022-09-11T14:27:42;3.47;;;2.40;;
25962;SDS011;13760;52.588;13.406;2022-09-11T14:30:25;2.88;;;2.22;;
25962;SDS011;13760;52.588;13.406;2022-09-11T14:33:12;4.53;;;2.40;;
25962;SDS011;13760;52.588;13.406;2022-09-11T14:35:40;5.47;;;2.45;;
25962;SDS011;13760;52.588;13.406;2022-09-11T14:38:09;3.95;;;2.50;;
25962;SDS011;13760;52.588;13.406;2022-09-11T14:40:36;2.55;;;2.20;;
25962;SDS011;13760;52.588;13.406;2022-09-11T14:43:13;4.22;;;2.38;;
25962;SDS011;13760;52.588;13.406;2022-09-11T14:48:11;2.58;;;2.08;;
25962;SDS011;13760;52.588;13.406;2022-09-11T14:50:38;4.75;;;2.65;;
25962;SDS011;13760;52.588;13.406;2022-09-11T14:53:14;3.20;;;2.40;;
25962;SDS011;13760;52.588;13.406;2022-09-11T14:55:45;2.92;;;2.38;;
25962;SDS011;13760;52.588;13.406;2022-09-11T14:58:11;3.35;;;2.67;;
25962;SDS011;13760;52.588;13.406;2022-09-11T15:00:37;4.15;;;2.90;;
25962;SDS011;13760;52.588;13.406;2022-09-11T15:03:03;3.92;;;2.60;;
25962;SDS011;13760;52.588;13.406;2022-09-11T15:05:28;3.83;;;2.70;;
25962;SDS011;13760;52.588;13.406;2022-09-11T15:07:56;6.50;;;3.55;;
25962;SDS011;13760;52.588;13.406;2022-09-11T15:10:22;5.28;;;3.38;;
25962;SDS011;13760;52.588;13.406;2022-09-11T15:12:48;5.45;;;3.53;;
25962;SDS011;13760;52.588;13.406;2022-09-11T15:15:14;5.28;;;4.10;;
25962;SDS011;13760;52.588;13.406;2022-09-11T15:17:39;7.20;;;4.70;;
25962;SDS011;13760;52.588;13.406;2022-09-11T15:20:05;5.00;;;4.50;;
25962;SDS011;13760;52.588;13.406;2022-09-11T15:22:34;5.20;;;4.30;;
25962;SDS011;13760;52.588;13.406;2022-09-11T15:25:05;5.95;;;4.60;;
25962;SDS011;13760;52.588;13.406;2022-09-11T15:27:31;5.72;;;4.30;;
25962;SDS011;13760;52.588;13.406;2022-09-11T15:29:57;6.47;;;4.72;;
25962;SDS011;13760;52.588;13.406;2022-09-11T15:32:24;5.10;;;4.28;;
25962;SDS011;13760;52.588;13.406;2022-09-11T15:34:50;7.70;;;5.20;;
25962;SDS011;13760;52.588;13.406;2022-09-11T15:37:18;7.15;;;4.72;;
25962;SDS011;13760;52.588;13.406;2022-09-11T15:39:44;7.40;;;4.78;;
25962;SDS011;13760;52.588;13.406;2022-09-11T15:42:10;5.15;;;4.22;;
25962;SDS011;13760;52.588;13.406;2022-09-11T15:44:37;5.60;;;4.38;;
25962;SDS011;13760;52.588;13.406;2022-09-11T15:47:03;4.70;;;3.80;;
25962;SDS011;13760;52.588;13.406;2022-09-11T15:49:29;4.57;;;4.07;;
25962;SDS011;13760;52.588;13.406;2022-09-11T15:51:56;4.65;;;3.92;;
25962;SDS011;13760;52.588;13.406;2022-09-11T15:54:23;4.63;;;3.60;;
25962;SDS011;13760;52.588;13.406;2022-09-11T15:56:50;3.53;;;3.05;;
25962;SDS011;13760;52.588;13.406;2022-09-11T15:59:16;3.35;;;2.97;;
25962;SDS011;13760;52.588;13.406;2022-09-11T16:01:42;4.22;;;3.13;;
25962;SDS011;13760;52.588;13.406;2022-09-11T16:04:09;3.33;;;3.00;;
25962;SDS011;13760;52.588;13.406;2022-09-11T16:06:39;4.25;;;3.30;;
25962;SDS011;13760;52.588;13.406;2022-09-11T16:09:09;3.28;;;2.97;;
25962;SDS011;13760;52.588;13.406;2022-09-11T16:11:37;3.45;;;2.97;;
25962;SDS011;13760;52.588;13.406;2022-09-11T16:14:05;4.35;;;2.50;;
25962;SDS011;13760;52.588;13.406;2022-09-11T16:16:32;4.45;;;2.92;;
25962;SDS011;13760;52.588;13.406;2022-09-11T16:18:58;3.80;;;2.83;;
25962;SDS011;13760;52.588;13.406;2022-09-11T16:21:26;3.63;;;2.60;;
25962;SDS011;13760;52.588;13.406;2022-09-11T16:23:53;3.13;;;2.83;;
25962;SDS011;13760;52.588;13.406;2022-09-11T16:26:19;4.47;;;2.90;;
25962;SDS011;13760;52.588;13.406;2022-09-11T16:28:48;3.78;;;3.30;;
25962;SDS011;13760;52.588;13.406;2022-09-11T16:31:16;4.72;;;3.38;;
25962;SDS011;13760;52.588;13.406;2022-09-11T16:33:43;3.20;;;2.88;;
25962;SDS011;13760;52.588;13.406;2022-09-11T16:36:11;5.55;;;3.13;;
25962;SDS011;13760;52.588;13.406;2022-09-11T16:38:39;6.13;;;3.67;;
25962;SDS011;13760;52.588;13.406;2022-09-11T16:41:06;5.57;;;3.75;;
25962;SDS011;13760;52.588;13.406;2022-09-11T16:43:39;8.27;;;4.15;;
25962;SDS011;13760;52.588;13.406;2022-09-11T16:46:07;6.63;;;4.38;;
25962;SDS011;13760;52.588;13.406;2022-09-11T16:48:33;7.13;;;4.65;;
25962;SDS011;13760;52.588;13.406;2022-09-11T16:51:02;7.07;;;4.38;;
25962;SDS011;13760;52.588;13.406;2022-09-11T16:53:30;7.43;;;4.50;;
25962;SDS011;13760;52.588;13.406;2022-09-11T16:55:57;8.27;;;5.25;;
25962;SDS011;13760;52.588;13.406;2022-09-11T16:58:25;6.50;;;4.35;;
25962;SDS011;13760;52.588;13.406;2022-09-11T17:00:52;5.63;;;4.22;;
25962;SDS011;13760;52.588;13.406;2022-09-11T17:03:19;6.20;;;4.15;;
25962;SDS011;13760;52.588;13.406;2022-09-11T17:05:48;4.32;;;3.92;;
25962;SDS011;13760;52.588;13.406;2022-09-11T17:08:16;5.55;;;3.92;;
25962;SDS011;13760;52.588;13.406;2022-09-11T17:10:43;4.90;;;3.80;;
25962;SDS011;13760;52.588;13.406;2022-09-11T17:13:11;4.75;;;4.07;;
25962;SDS011;13760;52.588;13.406;2022-09-11T17:15:37;6.55;;;4.40;;